sensor_id;sensor_type;location;lat;lon;timestamp;temperature;humidity
2763;DHT22;1389;51.490;7.338;2023-03-14T00:02:10;12.60;81.30
2763;DHT22;1389;51.490;7.338;2023-03-14T00:04:36;12.60;81.60
2763;DHT22;1389;51.490;7.338;2023-03-14T00:07:03;12.60;81.00
2763;DHT22;1389;51.490;7.338;2023-03-14T00:09:29;12.60;81.20
2763;DHT22;1389;51.490;7.338;2023-03-14T00:11:56;12.60;80.80
2763;DHT22;1389;51.490;7.338;2023-03-14T00:14:22;12.50;81.10
2763;DHT22;1389;51.490;7.338;2023-03-14T00:16:48;12.50;81.30
2763;DHT22;1389;51.490;7.338;2023-03-14T00:19:15;12.50;81.20
2763;DHT22;1389;51.490;7.338;2023-03-14T00:21:41;12.50;81.10
2763;DHT22;1389;51.490;7.338;2023-03-14T00:24:08;12.50;81.20
2763;DHT22;1389;51.490;7.338;2023-03-14T00:26:34;12.40;81.40
2763;DHT22;1389;51.490;7.338;2023-03-14T00:29:00;12.40;81.10
2763;DHT22;1389;51.490;7.338;2023-03-14T00:31:26;12.40;80.90
2763;DHT22;1389;51.490;7.338;2023-03-14T00:33:53;12.40;81.10
2763;DHT22;1389;51.490;7.338;2023-03-14T00:36:20;12.40;81.10
2763;DHT22;1389;51.490;7.338;2023-03-14T00:38:48;12.40;80.50
2763;DHT22;1389;51.490;7.338;2023-03-14T00:41:16;12.40;80.90
2763;DHT22;1389;51.490;7.338;2023-03-14T00:43:43;12.40;81.30
2763;DHT22;1389;51.490;7.338;2023-03-14T00:46:09;12.40;81.20
2763;DHT22;1389;51.490;7.338;2023-03-14T00:48:36;12.40;81.00
2763;DHT22;1389;51.490;7.338;2023-03-14T00:51:03;12.40;80.90
2763;DHT22;1389;51.490;7.338;2023-03-14T00:53:30;12.40;81.30
2763;DHT22;1389;51.490;7.338;2023-03-14T00:55:56;12.40;80.90
2763;DHT22;1389;51.490;7.338;2023-03-14T00:58:22;12.40;80.90
2763;DHT22;1389;51.490;7.338;2023-03-14T01:00:48;12.40;81.20
2763;DHT22;1389;51.490;7.338;2023-03-14T01:03:15;12.40;81.30
2763;DHT22;1389;51.490;7.338;2023-03-14T01:05:41;12.40;81.10
2763;DHT22;1389;51.490;7.338;2023-03-14T01:08:07;12.40;81.10
2763;DHT22;1389;51.490;7.338;2023-03-14T01:10:37;12.40;81.50
2763;DHT22;1389;51.490;7.338;2023-03-14T01:13:03;12.40;82.70
2763;DHT22;1389;51.490;7.338;2023-03-14T01:15:30;12.20;83.90
2763;DHT22;1389;51.490;7.338;2023-03-14T01:17:56;11.90;84.30
2763;DHT22;1389;51.490;7.338;2023-03-14T01:20:22;11.50;85.60
2763;DHT22;1389;51.490;7.338;2023-03-14T01:22:48;11.10;87.10
2763;DHT22;1389;51.490;7.338;2023-03-14T01:25:16;10.80;88.00
2763;DHT22;1389;51.490;7.338;2023-03-14T01:27:42;10.70;88.70
2763;DHT22;1389;51.490;7.338;2023-03-14T01:30:09;10.60;89.50
2763;DHT22;1389;51.490;7.338;2023-03-14T01:32:36;10.50;90.50
2763;DHT22;1389;51.490;7.338;2023-03-14T01:35:03;10.50;90.70
2763;DHT22;1389;51.490;7.338;2023-03-14T01:37:29;10.40;91.20
2763;DHT22;1389;51.490;7.338;2023-03-14T01:39:55;10.40;91.20
2763;DHT22;1389;51.490;7.338;2023-03-14T01:42:21;10.30;91.90
2763;DHT22;1389;51.490;7.338;2023-03-14T01:47:15;10.30;92.70
2763;DHT22;1389;51.490;7.338;2023-03-14T01:49:41;10.20;92.70
2763;DHT22;1389;51.490;7.338;2023-03-14T01:52:35;10.20;92.70
2763;DHT22;1389;51.490;7.338;2023-03-14T01:55:05;10.10;93.10
2763;DHT22;1389;51.490;7.338;2023-03-14T01:57:38;10.10;93.50
2763;DHT22;1389;51.490;7.338;2023-03-14T02:00:20;10.10;93.90
2763;DHT22;1389;51.490;7.338;2023-03-14T02:05:19;10.10;94.00
2763;DHT22;1389;51.490;7.338;2023-03-14T02:07:55;10.00;94.20
2763;DHT22;1389;51.490;7.338;2023-03-14T02:10:28;10.00;94.70
2763;DHT22;1389;51.490;7.338;2023-03-14T02:12:56;10.00;94.60
2763;DHT22;1389;51.490;7.338;2023-03-14T02:15:23;10.00;94.90
2763;DHT22;1389;51.490;7.338;2023-03-14T02:17:49;10.00;94.30
2763;DHT22;1389;51.490;7.338;2023-03-14T02:22:55;9.90;95.10
2763;DHT22;1389;51.490;7.338;2023-03-14T02:25:46;9.90;95.00
2763;DHT22;1389;51.490;7.338;2023-03-14T02:28:14;9.90;95.10
2763;DHT22;1389;51.490;7.338;2023-03-14T02:30:40;9.90;94.80
2763;DHT22;1389;51.490;7.338;2023-03-14T02:33:10;9.90;94.80
2763;DHT22;1389;51.490;7.338;2023-03-14T02:35:41;9.90;95.10
2763;DHT22;1389;51.490;7.338;2023-03-14T02:38:33;9.90;95.30
2763;DHT22;1389;51.490;7.338;2023-03-14T02:41:00;10.00;95.00
2763;DHT22;1389;51.490;7.338;2023-03-14T02:43:26;10.00;94.80
2763;DHT22;1389;51.490;7.338;2023-03-14T02:45:52;10.00;94.70
2763;DHT22;1389;51.490;7.338;2023-03-14T02:48:35;10.10;94.60
2763;DHT22;1389;51.490;7.338;2023-03-14T02:51:03;10.10;94.60
2763;DHT22;1389;51.490;7.338;2023-03-14T02:53:32;10.20;94.60
2763;DHT22;1389;51.490;7.338;2023-03-14T02:55:59;10.20;94.50
2763;DHT22;1389;51.490;7.338;2023-03-14T02:58:26;10.30;94.30
2763;DHT22;1389;51.490;7.338;2023-03-14T03:00:53;10.30;94.30
2763;DHT22;1389;51.490;7.338;2023-03-14T03:03:19;10.40;94.10
2763;DHT22;1389;51.490;7.338;2023-03-14T03:05:53;10.40;94.00
2763;DHT22;1389;51.490;7.338;2023-03-14T03:08:22;10.40;93.90
2763;DHT22;1389;51.490;7.338;2023-03-14T03:10:48;10.40;93.80
2763;DHT22;1389;51.490;7.338;2023-03-14T03:13:14;10.40;93.60
2763;DHT22;1389;51.490;7.338;2023-03-14T03:15:40;10.50;93.30
2763;DHT22;1389;51.490;7.338;2023-03-14T03:18:07;10.50;93.20
2763;DHT22;1389;51.490;7.338;2023-03-14T03:20:33;10.50;92.90
2763;DHT22;1389;51.490;7.338;2023-03-14T03:23:00;10.50;92.60
2763;DHT22;1389;51.490;7.338;2023-03-14T03:25:26;10.50;92.70
2763;DHT22;1389;51.490;7.338;2023-03-14T03:27:53;10.50;92.10
2763;DHT22;1389;51.490;7.338;2023-03-14T03:30:19;10.50;92.20
2763;DHT22;1389;51.490;7.338;2023-03-14T03:32:46;10.50;92.10
2763;DHT22;1389;51.490;7.338;2023-03-14T03:35:14;10.50;92.40
2763;DHT22;1389;51.490;7.338;2023-03-14T03:37:40;10.50;92.10
2763;DHT22;1389;51.490;7.338;2023-03-14T03:40:07;10.50;92.00
2763;DHT22;1389;51.490;7.338;2023-03-14T03:42:33;10.50;91.60
2763;DHT22;1389;51.490;7.338;2023-03-14T03:45:00;10.50;91.60
2763;DHT22;1389;51.490;7.338;2023-03-14T03:47:27;10.50;91.50
2763;DHT22;1389;51.490;7.338;2023-03-14T03:49:53;10.60;91.30
2763;DHT22;1389;51.490;7.338;2023-03-14T03:52:19;10.60;91.30
2763;DHT22;1389;51.490;7.338;2023-03-14T03:54:46;10.60;91.00
2763;DHT22;1389;51.490;7.338;2023-03-14T03:57:12;10.60;91.00
2763;DHT22;1389;51.490;7.338;2023-03-14T03:59:38;10.60;91.40
2763;DHT22;1389;51.490;7.338;2023-03-14T04:02:07;10.60;91.40
2763;DHT22;1389;51.490;7.338;2023-03-14T04:04:33;10.60;91.70
2763;DHT22;1389;51.490;7.338;2023-03-14T04:06:59;10.50;91.80
2763;DHT22;1389;51.490;7.338;2023-03-14T04:09:25;10.50;91.90
2763;DHT22;1389;51.490;7.338;2023-03-14T04:11:51;10.50;92.00
2763;DHT22;1389;51.490;7.338;2023-03-14T04:14:17;10.50;92.10
2763;DHT22;1389;51.490;7.338;2023-03-14T04:16:43;10.50;92.20
2763;DHT22;1389;51.490;7.338;2023-03-14T04:19:09;10.50;92.10
2763;DHT22;1389;51.490;7.338;2023-03-14T04:21:35;10.50;92.40
2763;DHT22;1389;51.490;7.338;2023-03-14T04:24:02;10.50;92.20
2763;DHT22;1389;51.490;7.338;2023-03-14T04:26:28;10.50;92.40
2763;DHT22;1389;51.490;7.338;2023-03-14T04:28:54;10.50;92.50
2763;DHT22;1389;51.490;7.338;2023-03-14T04:31:21;10.50;92.10
2763;DHT22;1389;51.490;7.338;2023-03-14T04:33:47;10.50;91.80
2763;DHT22;1389;51.490;7.338;2023-03-14T04:36:13;10.40;91.70
2763;DHT22;1389;51.490;7.338;2023-03-14T04:38:40;10.50;91.40
2763;DHT22;1389;51.490;7.338;2023-03-14T04:41:06;10.40;91.30
2763;DHT22;1389;51.490;7.338;2023-03-14T04:43:33;10.30;91.50
2763;DHT22;1389;51.490;7.338;2023-03-14T04:45:59;10.20;91.50
2763;DHT22;1389;51.490;7.338;2023-03-14T04:48:26;10.00;91.40
2763;DHT22;1389;51.490;7.338;2023-03-14T04:50:52;9.90;92.20
2763;DHT22;1389;51.490;7.338;2023-03-14T04:53:19;9.80;92.90
2763;DHT22;1389;51.490;7.338;2023-03-14T04:55:49;9.70;93.60
2763;DHT22;1389;51.490;7.338;2023-03-14T04:58:16;9.60;94.20
2763;DHT22;1389;51.490;7.338;2023-03-14T05:00:42;9.60;94.60
2763;DHT22;1389;51.490;7.338;2023-03-14T05:03:08;9.60;94.80
2763;DHT22;1389;51.490;7.338;2023-03-14T05:05:34;9.60;95.70
2763;DHT22;1389;51.490;7.338;2023-03-14T05:08:00;9.50;96.10
2763;DHT22;1389;51.490;7.338;2023-03-14T05:10:26;9.40;96.10
2763;DHT22;1389;51.490;7.338;2023-03-14T05:12:52;9.30;95.90
2763;DHT22;1389;51.490;7.338;2023-03-14T05:15:18;9.10;96.20
2763;DHT22;1389;51.490;7.338;2023-03-14T05:17:44;9.00;96.60
2763;DHT22;1389;51.490;7.338;2023-03-14T05:20:11;9.00;97.30
2763;DHT22;1389;51.490;7.338;2023-03-14T05:22:39;9.00;97.70
2763;DHT22;1389;51.490;7.338;2023-03-14T05:25:06;9.00;97.90
2763;DHT22;1389;51.490;7.338;2023-03-14T05:27:33;9.00;98.30
2763;DHT22;1389;51.490;7.338;2023-03-14T05:29:59;9.00;98.40
2763;DHT22;1389;51.490;7.338;2023-03-14T05:32:25;9.00;98.50
2763;DHT22;1389;51.490;7.338;2023-03-14T05:34:51;8.90;98.30
2763;DHT22;1389;51.490;7.338;2023-03-14T05:37:18;8.90;98.30
2763;DHT22;1389;51.490;7.338;2023-03-14T05:39:44;8.90;98.60
2763;DHT22;1389;51.490;7.338;2023-03-14T05:42:10;8.90;98.60
2763;DHT22;1389;51.490;7.338;2023-03-14T05:44:36;8.90;98.60
2763;DHT22;1389;51.490;7.338;2023-03-14T05:47:02;8.90;98.50
2763;DHT22;1389;51.490;7.338;2023-03-14T05:49:28;8.90;98.70
2763;DHT22;1389;51.490;7.338;2023-03-14T05:51:54;8.90;98.70
2763;DHT22;1389;51.490;7.338;2023-03-14T05:54:20;8.90;98.60
2763;DHT22;1389;51.490;7.338;2023-03-14T05:56:46;8.90;98.90
2763;DHT22;1389;51.490;7.338;2023-03-14T05:59:12;8.90;99.00
2763;DHT22;1389;51.490;7.338;2023-03-14T06:01:39;9.00;98.80
2763;DHT22;1389;51.490;7.338;2023-03-14T06:04:05;9.00;98.80
2763;DHT22;1389;51.490;7.338;2023-03-14T06:06:31;9.00;98.90
2763;DHT22;1389;51.490;7.338;2023-03-14T06:08:57;9.10;98.90
2763;DHT22;1389;51.490;7.338;2023-03-14T06:11:23;9.10;98.90
2763;DHT22;1389;51.490;7.338;2023-03-14T06:13:50;9.10;98.80
2763;DHT22;1389;51.490;7.338;2023-03-14T06:16:16;9.10;98.80
2763;DHT22;1389;51.490;7.338;2023-03-14T06:18:42;9.10;99.10
2763;DHT22;1389;51.490;7.338;2023-03-14T06:21:09;9.20;99.20
2763;DHT22;1389;51.490;7.338;2023-03-14T06:23:35;9.20;99.30
2763;DHT22;1389;51.490;7.338;2023-03-14T06:26:01;9.20;99.30
2763;DHT22;1389;51.490;7.338;2023-03-14T06:28:27;9.30;99.30
2763;DHT22;1389;51.490;7.338;2023-03-14T06:30:53;9.30;99.30
2763;DHT22;1389;51.490;7.338;2023-03-14T06:33:19;9.40;99.30
2763;DHT22;1389;51.490;7.338;2023-03-14T06:35:45;9.40;99.30
2763;DHT22;1389;51.490;7.338;2023-03-14T06:38:11;9.40;99.30
2763;DHT22;1389;51.490;7.338;2023-03-14T06:40:37;9.50;99.30
2763;DHT22;1389;51.490;7.338;2023-03-14T06:43:03;9.50;99.30
2763;DHT22;1389;51.490;7.338;2023-03-14T06:45:29;9.50;99.30
2763;DHT22;1389;51.490;7.338;2023-03-14T06:47:55;9.50;99.30
2763;DHT22;1389;51.490;7.338;2023-03-14T06:50:21;9.50;99.30
2763;DHT22;1389;51.490;7.338;2023-03-14T06:52:48;9.50;99.30
2763;DHT22;1389;51.490;7.338;2023-03-14T06:55:15;9.60;99.30
2763;DHT22;1389;51.490;7.338;2023-03-14T06:57:42;9.60;99.30
2763;DHT22;1389;51.490;7.338;2023-03-14T07:00:11;9.60;99.30
2763;DHT22;1389;51.490;7.338;2023-03-14T07:02:37;9.60;99.30
2763;DHT22;1389;51.490;7.338;2023-03-14T07:05:03;9.60;99.30
2763;DHT22;1389;51.490;7.338;2023-03-14T07:07:30;9.70;99.30
2763;DHT22;1389;51.490;7.338;2023-03-14T07:09:56;9.70;99.30
2763;DHT22;1389;51.490;7.338;2023-03-14T07:12:22;9.70;99.30
2763;DHT22;1389;51.490;7.338;2023-03-14T07:14:48;9.70;99.30
2763;DHT22;1389;51.490;7.338;2023-03-14T07:17:14;9.70;99.20
2763;DHT22;1389;51.490;7.338;2023-03-14T07:19:40;9.70;99.00
2763;DHT22;1389;51.490;7.338;2023-03-14T07:22:06;9.70;99.30
2763;DHT22;1389;51.490;7.338;2023-03-14T07:24:32;9.70;99.30
2763;DHT22;1389;51.490;7.338;2023-03-14T07:26:58;9.70;99.30
2763;DHT22;1389;51.490;7.338;2023-03-14T07:29:24;9.70;99.30
2763;DHT22;1389;51.490;7.338;2023-03-14T07:31:50;9.80;99.30
2763;DHT22;1389;51.490;7.338;2023-03-14T07:34:16;9.80;99.30
2763;DHT22;1389;51.490;7.338;2023-03-14T07:36:43;9.80;99.30
2763;DHT22;1389;51.490;7.338;2023-03-14T07:39:09;9.80;99.30
2763;DHT22;1389;51.490;7.338;2023-03-14T07:41:35;9.80;99.30
2763;DHT22;1389;51.490;7.338;2023-03-14T07:44:01;9.80;99.30
2763;DHT22;1389;51.490;7.338;2023-03-14T07:46:27;9.80;99.30
2763;DHT22;1389;51.490;7.338;2023-03-14T07:48:53;9.80;99.30
2763;DHT22;1389;51.490;7.338;2023-03-14T07:51:19;9.90;99.30
2763;DHT22;1389;51.490;7.338;2023-03-14T07:53:45;9.80;99.30
2763;DHT22;1389;51.490;7.338;2023-03-14T07:56:11;9.80;99.30
2763;DHT22;1389;51.490;7.338;2023-03-14T07:58:37;9.80;99.30
2763;DHT22;1389;51.490;7.338;2023-03-14T08:01:04;9.80;99.30
2763;DHT22;1389;51.490;7.338;2023-03-14T08:03:30;9.80;99.30
2763;DHT22;1389;51.490;7.338;2023-03-14T08:05:56;9.90;99.30
2763;DHT22;1389;51.490;7.338;2023-03-14T08:08:22;9.90;99.30
2763;DHT22;1389;51.490;7.338;2023-03-14T08:10:48;10.00;99.30
2763;DHT22;1389;51.490;7.338;2023-03-14T08:13:14;10.00;99.30
2763;DHT22;1389;51.490;7.338;2023-03-14T08:15:40;10.00;99.30
2763;DHT22;1389;51.490;7.338;2023-03-14T08:18:06;10.00;99.30
2763;DHT22;1389;51.490;7.338;2023-03-14T08:20:33;10.00;99.30
2763;DHT22;1389;51.490;7.338;2023-03-14T08:23:00;10.10;99.30
2763;DHT22;1389;51.490;7.338;2023-03-14T08:25:27;10.00;99.30
2763;DHT22;1389;51.490;7.338;2023-03-14T08:27:53;10.00;99.30
2763;DHT22;1389;51.490;7.338;2023-03-14T08:30:21;10.10;99.30
2763;DHT22;1389;51.490;7.338;2023-03-14T08:32:48;10.10;99.30
2763;DHT22;1389;51.490;7.338;2023-03-14T08:35:14;10.10;99.30
2763;DHT22;1389;51.490;7.338;2023-03-14T08:37:40;10.10;99.30
2763;DHT22;1389;51.490;7.338;2023-03-14T08:40:08;10.10;99.30
2763;DHT22;1389;51.490;7.338;2023-03-14T08:42:36;10.10;99.30
2763;DHT22;1389;51.490;7.338;2023-03-14T08:45:03;10.20;99.30
2763;DHT22;1389;51.490;7.338;2023-03-14T08:47:29;10.20;99.30
2763;DHT22;1389;51.490;7.338;2023-03-14T08:49:56;10.20;99.30
2763;DHT22;1389;51.490;7.338;2023-03-14T08:52:22;10.30;99.30
2763;DHT22;1389;51.490;7.338;2023-03-14T08:54:48;10.30;99.30
2763;DHT22;1389;51.490;7.338;2023-03-14T08:57:14;10.30;99.30
2763;DHT22;1389;51.490;7.338;2023-03-14T08:59:40;10.30;99.30
2763;DHT22;1389;51.490;7.338;2023-03-14T09:02:08;10.40;99.30
2763;DHT22;1389;51.490;7.338;2023-03-14T09:04:34;10.40;99.30
2763;DHT22;1389;51.490;7.338;2023-03-14T09:07:00;10.30;99.30
2763;DHT22;1389;51.490;7.338;2023-03-14T09:09:27;10.30;99.30
2763;DHT22;1389;51.490;7.338;2023-03-14T09:11:53;10.30;99.30
2763;DHT22;1389;51.490;7.338;2023-03-14T09:14:19;10.40;99.30
2763;DHT22;1389;51.490;7.338;2023-03-14T09:16:45;10.40;99.30
2763;DHT22;1389;51.490;7.338;2023-03-14T09:19:11;10.30;99.30
2763;DHT22;1389;51.490;7.338;2023-03-14T09:21:37;10.40;99.30
2763;DHT22;1389;51.490;7.338;2023-03-14T09:24:05;10.40;99.30
2763;DHT22;1389;51.490;7.338;2023-03-14T09:26:31;10.40;99.30
2763;DHT22;1389;51.490;7.338;2023-03-14T09:28:57;10.30;99.30
2763;DHT22;1389;51.490;7.338;2023-03-14T09:31:23;10.30;99.30
2763;DHT22;1389;51.490;7.338;2023-03-14T09:33:52;10.20;99.30
2763;DHT22;1389;51.490;7.338;2023-03-14T09:36:18;10.10;99.30
2763;DHT22;1389;51.490;7.338;2023-03-14T09:38:44;10.10;99.30
2763;DHT22;1389;51.490;7.338;2023-03-14T09:41:34;10.00;99.30
2763;DHT22;1389;51.490;7.338;2023-03-14T09:44:08;10.00;99.30
2763;DHT22;1389;51.490;7.338;2023-03-14T09:46:37;9.90;99.30
2763;DHT22;1389;51.490;7.338;2023-03-14T09:49:13;9.80;99.30
2763;DHT22;1389;51.490;7.338;2023-03-14T09:51:41;9.60;99.30
2763;DHT22;1389;51.490;7.338;2023-03-14T09:57:05;9.20;99.10
2763;DHT22;1389;51.490;7.338;2023-03-14T09:59:32;9.10;99.10
2763;DHT22;1389;51.490;7.338;2023-03-14T10:02:14;8.90;99.30
2763;DHT22;1389;51.490;7.338;2023-03-14T10:04:40;8.90;99.30
2763;DHT22;1389;51.490;7.338;2023-03-14T10:07:14;8.90;99.30
2763;DHT22;1389;51.490;7.338;2023-03-14T10:09:43;8.80;99.30
2763;DHT22;1389;51.490;7.338;2023-03-14T10:12:10;8.80;99.30
2763;DHT22;1389;51.490;7.338;2023-03-14T10:14:37;8.70;99.30
2763;DHT22;1389;51.490;7.338;2023-03-14T10:17:12;8.70;99.30
2763;DHT22;1389;51.490;7.338;2023-03-14T10:19:59;8.60;99.30
2763;DHT22;1389;51.490;7.338;2023-03-14T10:22:32;8.60;99.30
2763;DHT22;1389;51.490;7.338;2023-03-14T10:25:04;8.60;99.30
2763;DHT22;1389;51.490;7.338;2023-03-14T10:27:35;8.50;99.30
2763;DHT22;1389;51.490;7.338;2023-03-14T10:30:07;8.50;99.30
2763;DHT22;1389;51.490;7.338;2023-03-14T10:32:38;8.50;99.30
2763;DHT22;1389;51.490;7.338;2023-03-14T10:40:18;8.50;99.30
2763;DHT22;1389;51.490;7.338;2023-03-14T10:42:44;8.40;99.30
2763;DHT22;1389;51.490;7.338;2023-03-14T10:45:41;8.40;99.30
2763;DHT22;1389;51.490;7.338;2023-03-14T10:53:41;8.20;99.30
2763;DHT22;1389;51.490;7.338;2023-03-14T10:56:12;8.20;99.30
2763;DHT22;1389;51.490;7.338;2023-03-14T10:58:44;8.20;99.30
2763;DHT22;1389;51.490;7.338;2023-03-14T11:01:47;8.20;99.30
2763;DHT22;1389;51.490;7.338;2023-03-14T11:09:45;7.90;99.10
2763;DHT22;1389;51.490;7.338;2023-03-14T11:15:27;7.70;98.00
2763;DHT22;1389;51.490;7.338;2023-03-14T11:21:27;7.40;98.40
2763;DHT22;1389;51.490;7.338;2023-03-14T11:24:18;7.40;98.30
2763;DHT22;1389;51.490;7.338;2023-03-14T11:27:18;7.50;99.00
2763;DHT22;1389;51.490;7.338;2023-03-14T11:33:02;7.50;98.10
2763;DHT22;1389;51.490;7.338;2023-03-14T11:38:40;7.40;97.20
2763;DHT22;1389;51.490;7.338;2023-03-14T11:41:20;7.50;97.90
2763;DHT22;1389;51.490;7.338;2023-03-14T11:43:52;7.60;98.40
2763;DHT22;1389;51.490;7.338;2023-03-14T11:51:58;7.60;96.50
2763;DHT22;1389;51.490;7.338;2023-03-14T11:54:37;7.60;96.20
2763;DHT22;1389;51.490;7.338;2023-03-14T11:57:14;7.60;96.20
2763;DHT22;1389;51.490;7.338;2023-03-14T12:13:51;7.50;94.00
2763;DHT22;1389;51.490;7.338;2023-03-14T12:18:50;7.40;93.40
2763;DHT22;1389;51.490;7.338;2023-03-14T12:21:17;7.40;93.40
2763;DHT22;1389;51.490;7.338;2023-03-14T12:23:55;7.40;93.10
2763;DHT22;1389;51.490;7.338;2023-03-14T12:26:24;7.40;92.80
2763;DHT22;1389;51.490;7.338;2023-03-14T12:34:02;7.30;92.80
2763;DHT22;1389;51.490;7.338;2023-03-14T12:42:37;7.40;93.50
2763;DHT22;1389;51.490;7.338;2023-03-14T12:45:34;7.50;93.60
2763;DHT22;1389;51.490;7.338;2023-03-14T12:48:22;7.60;93.70
2763;DHT22;1389;51.490;7.338;2023-03-14T12:51:05;7.70;93.80
2763;DHT22;1389;51.490;7.338;2023-03-14T12:59:34;7.80;92.40
2763;DHT22;1389;51.490;7.338;2023-03-14T13:07:03;7.80;92.50
2763;DHT22;1389;51.490;7.338;2023-03-14T13:12:00;7.70;91.10
2763;DHT22;1389;51.490;7.338;2023-03-14T13:14:29;7.50;91.20
2763;DHT22;1389;51.490;7.338;2023-03-14T13:16:59;7.30;91.30
2763;DHT22;1389;51.490;7.338;2023-03-14T13:19:28;7.20;91.90
2763;DHT22;1389;51.490;7.338;2023-03-14T13:22:20;7.10;92.70
2763;DHT22;1389;51.490;7.338;2023-03-14T13:24:46;7.00;92.70
2763;DHT22;1389;51.490;7.338;2023-03-14T13:27:20;7.00;92.80
2763;DHT22;1389;51.490;7.338;2023-03-14T13:29:49;7.00;93.20
2763;DHT22;1389;51.490;7.338;2023-03-14T13:32:20;6.90;93.40
2763;DHT22;1389;51.490;7.338;2023-03-14T13:34:46;7.00;93.50
2763;DHT22;1389;51.490;7.338;2023-03-14T13:37:19;7.00;93.70
2763;DHT22;1389;51.490;7.338;2023-03-14T13:40:04;7.00;93.60
2763;DHT22;1389;51.490;7.338;2023-03-14T13:42:31;7.10;93.30
2763;DHT22;1389;51.490;7.338;2023-03-14T13:44:57;7.10;93.00
2763;DHT22;1389;51.490;7.338;2023-03-14T13:47:25;7.10;92.50
2763;DHT22;1389;51.490;7.338;2023-03-14T13:49:52;7.10;91.80
2763;DHT22;1389;51.490;7.338;2023-03-14T13:52:22;7.00;91.30
2763;DHT22;1389;51.490;7.338;2023-03-14T13:54:53;7.00;91.10
2763;DHT22;1389;51.490;7.338;2023-03-14T13:57:19;7.00;91.30
2763;DHT22;1389;51.490;7.338;2023-03-14T13:59:59;6.90;91.50
2763;DHT22;1389;51.490;7.338;2023-03-14T14:02:26;6.90;91.60
2763;DHT22;1389;51.490;7.338;2023-03-14T14:04:53;7.00;91.90
2763;DHT22;1389;51.490;7.338;2023-03-14T14:07:19;7.10;92.60
2763;DHT22;1389;51.490;7.338;2023-03-14T14:09:50;7.40;92.80
2763;DHT22;1389;51.490;7.338;2023-03-14T14:20:10;7.90;91.70
2763;DHT22;1389;51.490;7.338;2023-03-14T14:22:39;7.90;91.30
2763;DHT22;1389;51.490;7.338;2023-03-14T14:25:06;8.00;91.00
2763;DHT22;1389;51.490;7.338;2023-03-14T14:27:41;8.10;91.10
2763;DHT22;1389;51.490;7.338;2023-03-14T14:30:32;8.20;91.20
2763;DHT22;1389;51.490;7.338;2023-03-14T14:33:18;8.30;90.10
2763;DHT22;1389;51.490;7.338;2023-03-14T14:35:54;8.30;89.60
2763;DHT22;1389;51.490;7.338;2023-03-14T14:38:20;8.30;88.90
2763;DHT22;1389;51.490;7.338;2023-03-14T14:40:53;8.30;85.30
2763;DHT22;1389;51.490;7.338;2023-03-14T14:43:28;8.20;85.20
2763;DHT22;1389;51.490;7.338;2023-03-14T14:45:55;8.30;85.60
2763;DHT22;1389;51.490;7.338;2023-03-14T14:48:24;8.50;83.40
2763;DHT22;1389;51.490;7.338;2023-03-14T14:51:01;8.50;80.50
2763;DHT22;1389;51.490;7.338;2023-03-14T14:53:37;8.60;79.70
2763;DHT22;1389;51.490;7.338;2023-03-14T14:56:16;8.70;78.00
2763;DHT22;1389;51.490;7.338;2023-03-14T14:58:45;8.50;77.20
2763;DHT22;1389;51.490;7.338;2023-03-14T15:01:23;8.40;75.40
2763;DHT22;1389;51.490;7.338;2023-03-14T15:03:51;8.30;76.70
2763;DHT22;1389;51.490;7.338;2023-03-14T15:06:18;8.30;78.00
2763;DHT22;1389;51.490;7.338;2023-03-14T15:08:46;8.20;76.70
2763;DHT22;1389;51.490;7.338;2023-03-14T15:13:42;8.50;78.00
2763;DHT22;1389;51.490;7.338;2023-03-14T15:16:10;8.60;76.50
2763;DHT22;1389;51.490;7.338;2023-03-14T15:18:37;8.70;75.90
2763;DHT22;1389;51.490;7.338;2023-03-14T15:21:03;8.70;75.30
2763;DHT22;1389;51.490;7.338;2023-03-14T15:23:29;8.70;75.00
2763;DHT22;1389;51.490;7.338;2023-03-14T15:25:55;8.70;73.90
2763;DHT22;1389;51.490;7.338;2023-03-14T15:28:29;8.60;72.30
2763;DHT22;1389;51.490;7.338;2023-03-14T15:30:57;8.60;73.60
2763;DHT22;1389;51.490;7.338;2023-03-14T15:33:24;8.60;72.60
2763;DHT22;1389;51.490;7.338;2023-03-14T15:35:51;8.50;73.40
2763;DHT22;1389;51.490;7.338;2023-03-14T15:38:20;8.40;73.20
2763;DHT22;1389;51.490;7.338;2023-03-14T15:40:50;8.30;74.60
2763;DHT22;1389;51.490;7.338;2023-03-14T15:43:16;8.30;75.80
2763;DHT22;1389;51.490;7.338;2023-03-14T15:45:44;8.30;75.60
2763;DHT22;1389;51.490;7.338;2023-03-14T15:48:18;8.30;74.40
2763;DHT22;1389;51.490;7.338;2023-03-14T15:50:45;8.30;74.50
2763;DHT22;1389;51.490;7.338;2023-03-14T15:53:12;8.20;74.00
2763;DHT22;1389;51.490;7.338;2023-03-14T15:55:38;8.20;72.10
2763;DHT22;1389;51.490;7.338;2023-03-14T15:58:04;8.10;71.90
2763;DHT22;1389;51.490;7.338;2023-03-14T16:00:30;8.00;72.20
2763;DHT22;1389;51.490;7.338;2023-03-14T16:02:56;8.00;72.40
2763;DHT22;1389;51.490;7.338;2023-03-14T16:05:22;7.90;73.00
2763;DHT22;1389;51.490;7.338;2023-03-14T16:07:48;7.90;72.80
2763;DHT22;1389;51.490;7.338;2023-03-14T16:10:15;7.80;70.70
2763;DHT22;1389;51.490;7.338;2023-03-14T16:12:41;7.70;70.20
2763;DHT22;1389;51.490;7.338;2023-03-14T16:15:09;7.70;69.20
2763;DHT22;1389;51.490;7.338;2023-03-14T16:17:35;7.70;70.20
2763;DHT22;1389;51.490;7.338;2023-03-14T16:20:04;7.60;69.30
2763;DHT22;1389;51.490;7.338;2023-03-14T16:22:30;7.60;66.30
2763;DHT22;1389;51.490;7.338;2023-03-14T16:25:05;7.50;67.30
2763;DHT22;1389;51.490;7.338;2023-03-14T16:27:31;7.40;67.80
2763;DHT22;1389;51.490;7.338;2023-03-14T16:29:58;7.40;66.70
2763;DHT22;1389;51.490;7.338;2023-03-14T16:32:27;7.30;65.20
2763;DHT22;1389;51.490;7.338;2023-03-14T16:34:53;7.30;65.40
2763;DHT22;1389;51.490;7.338;2023-03-14T16:37:19;7.30;65.00
2763;DHT22;1389;51.490;7.338;2023-03-14T16:39:47;7.20;66.50
2763;DHT22;1389;51.490;7.338;2023-03-14T16:42:15;7.20;66.00
2763;DHT22;1389;51.490;7.338;2023-03-14T16:44:41;7.10;66.10
2763;DHT22;1389;51.490;7.338;2023-03-14T16:47:07;7.10;66.10
2763;DHT22;1389;51.490;7.338;2023-03-14T16:49:33;7.10;67.10
2763;DHT22;1389;51.490;7.338;2023-03-14T16:52:00;7.00;67.20
2763;DHT22;1389;51.490;7.338;2023-03-14T16:54:26;7.00;66.30
2763;DHT22;1389;51.490;7.338;2023-03-14T16:56:52;7.00;65.80
2763;DHT22;1389;51.490;7.338;2023-03-14T16:59:19;7.00;66.60
2763;DHT22;1389;51.490;7.338;2023-03-14T17:01:45;7.00;67.30
2763;DHT22;1389;51.490;7.338;2023-03-14T17:04:11;6.90;67.10
2763;DHT22;1389;51.490;7.338;2023-03-14T17:06:37;6.90;67.50
2763;DHT22;1389;51.490;7.338;2023-03-14T17:09:04;6.90;67.10
2763;DHT22;1389;51.490;7.338;2023-03-14T17:11:31;6.90;66.60
2763;DHT22;1389;51.490;7.338;2023-03-14T17:14:01;6.90;67.30
2763;DHT22;1389;51.490;7.338;2023-03-14T17:16:28;6.90;68.00
2763;DHT22;1389;51.490;7.338;2023-03-14T17:18:55;6.90;68.50
2763;DHT22;1389;51.490;7.338;2023-03-14T17:21:22;6.80;68.70
2763;DHT22;1389;51.490;7.338;2023-03-14T17:23:49;6.90;67.70
2763;DHT22;1389;51.490;7.338;2023-03-14T17:26:15;6.80;68.40
2763;DHT22;1389;51.490;7.338;2023-03-14T17:28:43;6.80;66.90
2763;DHT22;1389;51.490;7.338;2023-03-14T17:31:15;6.80;67.40
2763;DHT22;1389;51.490;7.338;2023-03-14T17:33:41;6.80;67.90
2763;DHT22;1389;51.490;7.338;2023-03-14T17:36:08;6.80;68.20
2763;DHT22;1389;51.490;7.338;2023-03-14T17:38:35;6.70;69.80
2763;DHT22;1389;51.490;7.338;2023-03-14T17:41:01;6.70;69.60
2763;DHT22;1389;51.490;7.338;2023-03-14T17:43:27;6.70;68.70
2763;DHT22;1389;51.490;7.338;2023-03-14T17:46:05;6.70;67.80
2763;DHT22;1389;51.490;7.338;2023-03-14T17:48:33;6.70;68.20
2763;DHT22;1389;51.490;7.338;2023-03-14T17:50:59;6.70;68.80
2763;DHT22;1389;51.490;7.338;2023-03-14T17:53:25;6.60;68.70
2763;DHT22;1389;51.490;7.338;2023-03-14T17:55:51;6.60;68.70
2763;DHT22;1389;51.490;7.338;2023-03-14T17:58:18;6.50;69.60